Time;durP1;ratioP1;P1;durP2;ratioP2;P2;SDS_P1;SDS_P2;PMS_P1;PMS_P2;Temp;Humidity;BMP_temperature;BMP_pressure;BME280_temperature;BME280_humidity;BME280_pressure;Samples;Min_cycle;Max_cycle;Signal;HPM_P1;HPM_P2
2023/03/20 00:01:20;;;;;;;12.85;7.20;;;;;;;0.08;57.14;100332.84;5028289;28;20033;-62
2023/03/20 00:03:46;;;;;;;14.80;7.55;;;;;;;0.05;56.61;100332.06;4995390;28;20033;-63
2023/03/20 00:06:21;;;;;;;13.73;6.95;;;;;;;0.08;56.78;100339.84;5011394;28;20034;-62
2023/03/20 00:08:48;;;;;;;13.73;6.57;;;;;;;0.08;56.53;100338.09;5017248;28;20038;-64
2023/03/20 00:11:25;;;;;;;11.65;6.53;;;;;;;0.12;57.66;100338.84;5016677;28;20291;-63
2023/03/20 00:13:51;;;;;;;15.93;6.45;;;;;;;-0.09;56.78;100303.50;4999427;28;20045;-63
2023/03/20 00:16:17;;;;;;;12.52;7.65;;;;;;;0.12;57.10;100339.75;5015661;28;20032;-62
2023/03/20 00:18:43;;;;;;;15.75;8.38;;;;;;;0.14;56.59;100340.56;4998888;28;20356;-63
2023/03/20 00:21:17;;;;;;;14.13;8.00;;;;;;;0.22;56.94;100336.81;5015456;28;20056;-63
2023/03/20 00:23:43;;;;;;;14.48;7.78;;;;;;;0.18;56.07;100337.81;5016154;28;20037;-63
2023/03/20 00:26:14;;;;;;;16.38;8.35;;;;;;;0.14;56.70;100339.72;5031908;28;20510;-64
2023/03/20 00:28:43;;;;;;;13.98;7.47;;;;;;;0.10;56.99;100341.56;5036689;28;20037;-64
2023/03/20 00:31:26;;;;;;;14.75;7.68;;;;;;;0.14;57.05;100342.34;5034846;28;20021;-63
2023/03/20 00:33:54;;;;;;;14.52;7.80;;;;;;;0.05;56.62;100332.94;5033560;28;20037;-68
2023/03/20 00:36:20;;;;;;;16.48;7.97;;;;;;;0.03;57.46;100329.47;5035467;28;20033;-63
2023/03/20 00:38:46;;;;;;;17.80;8.20;;;;;;;0.02;57.05;100327.75;5034487;28;20100;-64
2023/03/20 00:41:22;;;;;;;16.08;7.82;;;;;;;0.03;57.13;100329.47;5036133;28;20360;-64
2023/03/20 00:43:51;;;;;;;15.32;8.25;;;;;;;0.01;57.69;100320.78;5036097;28;20030;-63
2023/03/20 00:46:17;;;;;;;14.32;8.05;;;;;;;-0.04;57.56;100326.16;5018585;28;20029;-63
2023/03/20 00:48:44;;;;;;;15.27;7.97;;;;;;;-0.02;58.22;100326.09;5019189;28;20034;-63
2023/03/20 00:51:09;;;;;;;17.52;8.50;;;;;;;-0.04;57.22;100314.75;5014900;28;20053;-63
2023/03/20 00:53:35;;;;;;;15.75;7.97;;;;;;;0.00;57.83;100319.03;5015017;28;20022;-64
2023/03/20 00:56:01;;;;;;;15.48;7.60;;;;;;;-0.05;57.45;100306.00;5025771;28;20444;-63
2023/03/20 00:58:27;;;;;;;16.23;8.38;;;;;;;-0.01;57.11;100312.03;5018228;28;20489;-65
2023/03/20 01:00:52;;;;;;;14.90;8.23;;;;;;;0.05;57.19;100319.78;5035708;28;20039;-64
2023/03/20 01:03:20;;;;;;;16.73;8.60;;;;;;;0.06;57.45;100316.22;5034403;28;20360;-62
2023/03/20 01:05:47;;;;;;;17.98;8.82;;;;;;;0.04;56.86;100317.16;5035770;28;20033;-62
2023/03/20 01:08:18;;;;;;;13.68;8.10;;;;;;;0.01;57.56;100314.63;5034875;28;20444;-62
2023/03/20 01:10:45;;;;;;;12.93;7.10;;;;;;;0.03;57.16;100318.94;5034926;28;20464;-63
2023/03/20 01:13:20;;;;;;;16.20;7.97;;;;;;;0.07;57.57;100323.22;5035338;28;20041;-63
2023/03/20 01:15:47;;;;;;;15.98;8.50;;;;;;;0.07;57.41;100317.94;5034821;28;20052;-62
2023/03/20 01:18:15;;;;;;;17.98;8.63;;;;;;;0.06;57.57;100313.59;5027222;28;20033;-63
2023/03/20 01:20:41;;;;;;;17.05;8.13;;;;;;;0.06;57.94;100310.09;5014619;28;20453;-63
2023/03/20 01:23:06;;;;;;;13.43;7.88;;;;;;;0.08;57.62;100313.53;5014788;28;20049;-64
2023/03/20 01:25:32;;;;;;;13.23;8.13;;;;;;;0.05;57.55;100311.00;5014798;28;20040;-62
2023/03/20 01:27:57;;;;;;;16.20;8.80;;;;;;;0.05;57.61;100305.72;5015439;28;20065;-61
2023/03/20 01:30:30;;;;;;;16.05;8.25;;;;;;;0.06;58.43;100303.06;4998155;28;20025;-64
2023/03/20 01:32:56;;;;;;;16.60;8.02;;;;;;;0.06;57.81;100308.31;5014147;28;20034;-63
2023/03/20 01:35:24;;;;;;;14.82;8.25;;;;;;;-0.13;57.80;100278.19;4998386;28;20030;-64
2023/03/20 01:37:51;;;;;;;13.90;8.25;;;;;;;-0.16;58.28;100272.09;5014982;28;20052;-62
2023/03/20 01:41:12;;;;;;;13.75;7.72;;;;;;;0.17;58.67;100313.28;5015415;28;20224;-63
2023/03/20 01:43:38;;;;;;;11.77;7.50;;;;;;;0.13;57.90;100298.47;5018836;28;20042;-63
2023/03/20 01:46:16;;;;;;;16.67;7.53;;;;;;;0.14;57.24;100302.84;5012975;28;20503;-62
2023/03/20 01:48:56;;;;;;;14.98;8.70;;;;;;;0.09;57.90;100302.97;5030348;28;20030;-62
2023/03/20 01:51:34;;;;;;;17.77;8.45;;;;;;;-0.03;57.66;100282.25;5014960;28;20100;-66
2023/03/20 01:54:12;;;;;;;19.27;8.25;;;;;;;0.00;58.00;100290.09;5012964;28;20096;-64
2023/03/20 01:56:48;;;;;;;19.25;8.90;;;;;;;-0.07;58.26;100281.50;5013998;28;20038;-63
2023/03/20 01:59:19;;;;;;;16.10;8.63;;;;;;;-0.11;58.36;100287.75;5026885;28;20076;-62
2023/03/20 02:01:45;;;;;;;17.70;8.35;;;;;;;-0.16;57.86;100282.63;5032657;28;20034;-63
2023/03/20 02:04:12;;;;;;;14.60;8.18;;;;;;;-0.20;58.53;100286.25;5033557;28;20029;-63
2023/03/20 02:06:40;;;;;;;16.27;8.55;;;;;;;-0.25;58.49;100282.88;5034122;28;20102;-63
2023/03/20 02:09:07;;;;;;;19.02;8.93;;;;;;;-0.22;59.49;100279.31;5032957;28;20029;-63
2023/03/20 02:11:33;;;;;;;14.50;8.10;;;;;;;-0.20;59.63;100288.00;5032929;28;20034;-63
2023/03/20 02:14:00;;;;;;;15.15;8.77;;;;;;;-0.21;58.62;100281.91;5033226;28;20033;-71
2023/03/20 02:16:26;;;;;;;14.75;9.10;;;;;;;-0.22;58.65;100274.91;5032826;28;20176;-65
2023/03/20 02:18:55;;;;;;;14.98;8.98;;;;;;;-0.22;58.83;100271.41;5023751;28;20030;-64
2023/03/20 02:22:07;;;;;;;18.13;8.88;;;;;;;-0.16;59.13;100274.72;5013235;28;20030;-63
2023/03/20 02:25:14;;;;;;;16.05;9.60;;;;;;;-0.15;58.77;100268.56;4996955;28;20041;-65
2023/03/20 02:28:08;;;;;;;18.10;9.68;;;;;;;-0.16;59.02;100258.94;5013981;28;20133;-63
2023/03/20 02:30:56;;;;;;;16.60;9.63;;;;;;;-0.13;58.60;100251.84;5013062;28;20046;-63
2023/03/20 02:33:32;;;;;;;16.10;9.23;;;;;;;-0.24;57.44;100247.78;5020233;28;20053;-63
2023/03/20 02:36:42;;;;;;;16.80;8.95;;;;;;;-0.15;57.56;100258.03;5033053;28;20094;-63
2023/03/20 02:39:19;;;;;;;16.50;8.63;;;;;;;-0.19;57.52;100261.66;5033662;28;20045;-63
2023/03/20 02:42:23;;;;;;;18.45;9.40;;;;;;;-0.17;56.86;100265.09;5031712;28;20048;-62
2023/03/20 02:45:13;;;;;;;16.35;9.80;;;;;;;-0.20;56.92;100257.31;5033453;28;20091;-63
2023/03/20 02:47:52;;;;;;;17.67;9.52;;;;;;;-0.22;57.04;100256.50;5030694;28;20041;-63
2023/03/20 02:50:36;;;;;;;15.85;9.30;;;;;;;-0.28;56.37;100254.00;5032346;28;20482;-62
2023/03/20 02:53:18;;;;;;;16.90;9.57;;;;;;;-0.27;57.11;100252.25;5031460;28;20501;-64
2023/03/20 02:55:55;;;;;;;19.35;9.32;;;;;;;-0.26;56.65;100251.34;5013517;28;20034;-63
2023/03/20 02:58:29;;;;;;;14.18;9.07;;;;;;;-0.34;56.47;100246.31;5013538;28;20033;-62
2023/03/20 03:01:00;;;;;;;16.58;8.88;;;;;;;-0.32;57.22;100252.38;5012543;28;20038;-64
2023/03/20 03:03:34;;;;;;;15.23;9.13;;;;;;;-0.30;56.57;100247.94;5013808;28;20037;-62
2023/03/20 03:06:08;;;;;;;16.52;9.40;;;;;;;-0.27;56.50;100253.09;4995856;28;20406;-64
2023/03/20 03:08:40;;;;;;;20.73;9.20;;;;;;;-0.28;56.87;100247.91;5012087;28;20295;-62
2023/03/20 03:11:07;;;;;;;14.57;8.82;;;;;;;-0.30;56.06;100237.41;5013417;28;20069;-64
2023/03/20 03:13:38;;;;;;;18.83;8.65;;;;;;;-0.36;56.31;100232.34;5012249;28;20029;-63
2023/03/20 03:16:13;;;;;;;17.58;9.52;;;;;;;-0.31;56.02;100235.69;5012799;28;20073;-65
2023/03/20 03:18:41;;;;;;;15.55;8.90;;;;;;;-0.29;56.80;100233.88;5011911;28;20342;-64
2023/03/20 03:21:10;;;;;;;17.15;8.32;;;;;;;-0.28;56.66;100235.59;5012586;28;20034;-64
2023/03/20 03:23:43;;;;;;;16.48;9.80;;;;;;;-0.26;56.61;100244.31;5013092;28;20479;-62
2023/03/20 03:26:14;;;;;;;15.57;9.40;;;;;;;-0.23;56.51;100227.56;5012637;28;20030;-63
2023/03/20 03:28:43;;;;;;;20.13;9.77;;;;;;;-0.48;56.27;100184.44;5012205;28;20068;-63
2023/03/20 03:31:14;;;;;;;15.63;9.52;;;;;;;-0.15;56.51;100220.31;5013299;28;20112;-64
2023/03/20 03:33:43;;;;;;;15.98;8.68;;;;;;;-0.07;56.41;100225.34;5012315;28;20030;-62
2023/03/20 03:36:43;;;;;;;22.35;9.60;;;;;;;0.05;56.75;100221.47;5011889;28;20045;-64
2023/03/20 03:39:38;;;;;;;21.33;10.07;;;;;;;0.17;56.28;100229.00;5013018;28;20042;-64
2023/03/20 03:42:07;;;;;;;19.25;8.95;;;;;;;0.19;55.63;100213.16;5012106;28;20452;-70
2023/03/20 03:44:51;;;;;;;19.10;9.75;;;;;;;0.31;55.85;100217.16;5012887;28;20037;-63
2023/03/20 03:47:17;;;;;;;15.85;8.95;;;;;;;0.43;55.09;100212.38;5011558;28;20032;-63
2023/03/20 03:49:49;;;;;;;18.58;10.10;;;;;;;0.53;55.09;100210.28;5013155;28;20033;-64
2023/03/20 03:52:21;;;;;;;17.95;10.18;;;;;;;0.66;54.57;100207.28;5011970;28;20068;-63
2023/03/20 03:55:07;;;;;;;19.30;9.40;;;;;;;0.87;54.33;100213.56;4995201;28;20030;-63
2023/03/20 03:57:41;;;;;;;17.73;9.57;;;;;;;0.97;53.99;100212.38;4995357;28;20148;-62
2023/03/20 04:00:10;;;;;;;19.17;10.43;;;;;;;1.03;53.99;100194.59;5012061;28;20034;-64
2023/03/20 04:02:37;;;;;;;16.88;9.98;;;;;;;1.05;53.33;100174.31;4993673;28;20476;-63
2023/03/20 04:05:05;;;;;;;21.08;9.98;;;;;;;1.26;52.47;100175.31;5011852;28;20033;-63
2023/03/20 04:07:31;;;;;;;18.60;9.95;;;;;;;1.53;51.56;100202.47;5011923;28;20030;-64
2023/03/20 04:09:56;;;;;;;18.13;9.50;;;;;;;1.67;51.13;100198.44;5011302;28;20318;-62
2023/03/20 04:12:37;;;;;;;14.90;8.55;;;;;;;1.98;50.96;100203.41;5012312;28;20104;-63
2023/03/20 04:15:04;;;;;;;17.02;8.98;;;;;;;2.23;49.89;100199.78;5028041;28;20120;-64
2023/03/20 04:17:30;;;;;;;13.82;8.57;;;;;;;3.00;48.61;100194.88;5011277;28;20049;-62
2023/03/20 04:19:55;;;;;;;16.83;8.52;;;;;;;4.05;44.80;100168.09;5011841;28;20449;-65
2023/03/20 04:22:21;;;;;;;17.13;8.20;;;;;;;5.47;43.43;100175.09;5038262;28;20523;-66
2023/03/20 04:24:47;;;;;;;11.88;7.47;;;;;;;6.43;40.39;100193.78;5039824;28;20024;-62
2023/03/20 04:27:13;;;;;;;17.40;7.70;;;;;;;6.58;39.39;100164.59;5041595;28;20029;-66
2023/03/20 04:29:39;;;;;;;12.52;6.93;;;;;;;7.13;37.68;100173.75;5039347;28;20075;-64
2023/03/20 04:32:05;;;;;;;14.02;7.15;;;;;;;8.21;36.17;100186.59;5040057;28;20053;-64
2023/03/20 04:34:31;;;;;;;11.98;6.38;;;;;;;9.17;33.70;100190.09;5039586;28;20037;-65
2023/03/20 04:36:59;;;;;;;14.13;6.55;;;;;;;9.73;32.60;100175.50;5023424;28;20045;-63
2023/03/20 04:39:26;;;;;;;11.15;6.43;;;;;;;10.38;30.32;100148.53;5039999;28;20042;-64
2023/03/20 04:41:51;;;;;;;10.85;5.88;;;;;;;11.75;28.92;100155.00;5039117;28;20116;-65
2023/03/20 04:44:17;;;;;;;9.57;5.97;;;;;;;13.42;25.75;100169.00;5023692;28;20021;-65
2023/03/20 04:46:42;;;;;;;8.07;5.57;;;;;;;14.25;24.37;100173.44;5021259;28;20085;-64
2023/03/20 04:49:08;;;;;;;9.50;5.30;;;;;;;14.91;22.87;100167.38;5021878;28;20055;-65
2023/03/20 04:51:33;;;;;;;9.00;5.13;;;;;;;15.30;22.03;100171.84;5039069;28;20033;-65
2023/03/20 04:53:59;;;;;;;11.13;5.10;;;;;;;16.13;20.88;100170.19;5029070;28;20159;-66
2023/03/20 04:56:24;;;;;;;7.05;4.95;;;;;;;16.96;19.53;100167.44;5045013;28;20037;-66
2023/03/20 04:58:50;;;;;;;8.38;4.80;;;;;;;17.58;18.13;100175.47;5024307;28;20437;-64
2023/03/20 05:01:15;;;;;;;7.93;4.00;;;;;;;17.76;17.29;100171.84;5045820;28;20047;-66
2023/03/20 05:03:41;;;;;;;9.32;4.32;;;;;;;17.16;17.92;100168.13;5043260;28;20041;-64
2023/03/20 05:06:06;;;;;;;7.60;4.70;;;;;;;15.95;18.92;100172.03;5043507;28;20029;-67
2023/03/20 05:08:32;;;;;;;7.88;5.57;;;;;;;14.52;20.67;100169.19;5012843;28;20034;-65
2023/03/20 05:10:57;;;;;;;14.52;6.00;;;;;;;13.46;22.47;100174.03;5030357;28;20038;-65
2023/03/20 05:13:23;;;;;;;16.85;7.55;;;;;;;12.44;23.88;100180.78;5033864;28;20026;-64
2023/03/20 05:15:48;;;;;;;13.68;6.30;;;;;;;11.39;24.07;100165.03;5018008;28;20040;-65
2023/03/20 05:18:14;;;;;;;21.75;6.70;;;;;;;10.71;25.14;100179.97;5035123;28;20087;-66
2023/03/20 05:20:39;;;;;;;13.57;6.47;;;;;;;10.01;26.28;100189.56;5013241;28;20480;-66
2023/03/20 05:23:05;;;;;;;11.23;6.80;;;;;;;9.52;26.45;100184.09;5014063;28;20467;-62
2023/03/20 05:25:30;;;;;;;16.15;5.85;;;;;;;8.97;26.78;100170.94;5016250;28;20111;-57
2023/03/20 05:27:56;;;;;;;12.80;5.47;;;;;;;8.72;26.88;100182.41;5034060;28;20765;-56
2023/03/20 05:30:21;;;;;;;16.25;5.72;;;;;;;8.45;27.59;100189.47;5022467;28;20035;-57
2023/03/20 05:32:51;;;;;;;18.58;6.30;;;;;;;8.22;27.55;100190.97;5033526;28;20025;-57
2023/03/20 05:35:17;;;;;;;17.67;6.03;;;;;;;8.00;28.01;100183.50;5051358;28;20455;-60
2023/03/20 05:37:43;;;;;;;21.20;6.20;;;;;;;8.13;28.23;100184.41;5046255;28;20072;-56
2023/03/20 05:40:12;;;;;;;14.55;6.13;;;;;;;8.44;27.75;100178.88;5044066;28;20071;-57
2023/03/20 05:42:38;;;;;;;18.73;5.68;;;;;;;9.23;26.68;100189.66;5018862;28;20039;-64
2023/03/20 05:45:04;;;;;;;12.35;5.57;;;;;;;10.29;25.24;100182.19;5015295;28;20054;-54
2023/03/20 05:47:30;;;;;;;13.63;5.53;;;;;;;11.85;23.28;100185.50;5013919;28;20036;-53
2023/03/20 05:49:55;;;;;;;29.40;6.32;;;;;;;13.89;20.65;100182.81;5025927;28;20017;-56
2023/03/20 05:52:21;;;;;;;18.88;4.90;;;;;;;15.63;19.00;100182.25;5054139;28;20120;-58
2023/03/20 05:54:47;;;;;;;12.98;5.60;;;;;;;17.30;16.94;100177.53;5054662;28;20060;-56
2023/03/20 05:57:12;;;;;;;11.77;5.35;;;;;;;19.10;15.42;100158.38;5054502;28;20462;-52
2023/03/20 05:59:38;;;;;;;13.18;5.53;;;;;;;20.88;13.78;100158.09;5054125;28;20033;-56
2023/03/20 06:02:03;;;;;;;20.05;6.03;;;;;;;21.34;13.68;100178.91;5035486;28;20025;-56
2023/03/20 06:04:29;;;;;;;12.13;5.55;;;;;;;22.78;12.06;100180.31;5033553;28;20041;-58
2023/03/20 06:06:54;;;;;;;13.98;6.05;;;;;;;22.04;12.37;100159.56;5017636;28;20376;-54
2023/03/20 06:09:20;;;;;;;19.45;5.85;;;;;;;21.01;12.79;100173.78;5014078;28;20057;-56
2023/03/20 06:11:46;;;;;;;26.17;5.45;;;;;;;19.97;13.61;100185.81;5014032;28;20490;-56
2023/03/20 06:14:11;;;;;;;21.60;5.80;;;;;;;18.87;13.87;100182.63;5013235;28;20037;-58
2023/03/20 06:16:36;;;;;;;16.52;5.63;;;;;;;17.85;15.09;100187.13;5014054;28;20026;-55
2023/03/20 06:19:02;;;;;;;15.98;5.97;;;;;;;17.50;15.52;100180.84;5028729;28;20181;-55
2023/03/20 06:21:27;;;;;;;18.48;5.65;;;;;;;17.53;15.31;100182.41;5033591;28;20029;-54
2023/03/20 06:23:53;;;;;;;14.45;5.72;;;;;;;17.23;15.18;100177.31;5024587;28;20101;-55
2023/03/20 06:26:20;;;;;;;14.00;5.60;;;;;;;16.91;16.13;100178.75;5024417;28;20025;-57
2023/03/20 06:28:45;;;;;;;14.57;5.90;;;;;;;16.83;15.68;100175.94;5022501;28;20041;-59
2023/03/20 06:31:11;;;;;;;16.08;5.90;;;;;;;16.85;15.61;100179.34;5013718;28;20030;-64
2023/03/20 06:33:36;;;;;;;17.73;6.40;;;;;;;16.60;16.21;100171.88;5013746;28;20026;-56
2023/03/20 06:36:03;;;;;;;23.90;6.70;;;;;;;16.38;16.28;100173.16;5026137;28;20056;-62
2023/03/20 06:38:28;;;;;;;17.90;6.80;;;;;;;16.27;16.17;100170.69;5018733;28;20046;-56
2023/03/20 06:40:54;;;;;;;16.77;5.97;;;;;;;16.50;16.16;100171.09;5012408;28;20199;-54
2023/03/20 06:43:20;;;;;;;22.02;7.30;;;;;;;17.04;15.62;100162.97;5018431;28;20053;-56
2023/03/20 06:45:45;;;;;;;22.13;6.72;;;;;;;18.06;15.03;100164.19;5029334;28;20033;-58
2023/03/20 06:48:11;;;;;;;25.80;6.68;;;;;;;19.29;13.92;100138.19;5036072;28;20385;-57
2023/03/20 06:50:36;;;;;;;19.75;6.82;;;;;;;20.46;13.29;100161.09;5053289;28;20029;-57
2023/03/20 06:53:02;;;;;;;19.17;6.93;;;;;;;21.35;12.15;100165.13;5035583;28;20122;-56
2023/03/20 06:55:28;;;;;;;11.65;6.45;;;;;;;22.10;11.80;100166.97;5028335;28;20164;-60
2023/03/20 06:57:54;;;;;;;19.33;7.30;;;;;;;23.58;10.93;100143.72;5024349;28;20040;-54
2023/03/20 07:00:20;;;;;;;16.05;6.15;;;;;;;24.52;10.18;100155.03;5013382;28;20116;-53
2023/03/20 07:02:47;;;;;;;18.00;6.82;;;;;;;24.22;10.06;100128.03;5008602;28;20041;-53
2023/03/20 07:05:12;;;;;;;17.98;6.57;;;;;;;23.25;10.69;100128.00;5012851;28;20052;-65
2023/03/20 07:07:38;;;;;;;19.92;6.80;;;;;;;23.02;11.08;100141.84;5013266;28;20412;-59
2023/03/20 07:10:04;;;;;;;19.58;7.43;;;;;;;23.21;11.19;100143.06;5027855;28;20173;-55
2023/03/20 07:12:29;;;;;;;27.85;7.57;;;;;;;23.26;11.05;100131.56;5017650;28;20045;-55
2023/03/20 07:14:55;;;;;;;21.27;7.55;;;;;;;22.42;11.70;100142.97;5031791;28;20464;-59
2023/03/20 07:17:21;;;;;;;18.23;6.53;;;;;;;21.45;12.29;100144.91;5035228;28;20025;-54
2023/03/20 07:19:47;;;;;;;14.32;6.68;;;;;;;20.46;13.11;100114.03;5041430;28;20041;-57
2023/03/20 07:22:21;;;;;;;16.92;6.75;;;;;;;19.62;13.70;100145.34;5031468;28;20037;-61
2023/03/20 07:24:47;;;;;;;19.52;7.18;;;;;;;18.31;14.61;100138.00;5033633;28;20051;-58
2023/03/20 07:27:12;;;;;;;19.33;6.85;;;;;;;17.76;15.28;100139.34;5029790;28;20452;-55
2023/03/20 07:29:38;;;;;;;22.02;6.95;;;;;;;17.16;15.69;100146.50;5032661;28;20029;-56
2023/03/20 07:32:03;;;;;;;19.30;7.50;;;;;;;16.97;16.13;100142.06;5030088;28;20052;-57
2023/03/20 07:34:28;;;;;;;15.63;7.10;;;;;;;17.35;15.76;100142.69;5012226;28;20038;-57
2023/03/20 07:36:55;;;;;;;23.63;7.40;;;;;;;17.83;15.56;100136.84;5011397;28;20433;-57
2023/03/20 07:39:21;;;;;;;21.35;7.45;;;;;;;18.06;14.88;100104.59;5016120;28;20056;-56
2023/03/20 07:41:46;;;;;;;20.55;6.85;;;;;;;19.20;13.84;100129.22;5012906;28;20038;-50
2023/03/20 07:44:13;;;;;;;22.83;7.10;;;;;;;20.72;13.02;100119.06;5028944;28;20034;-54
2023/03/20 07:46:39;;;;;;;15.60;6.70;;;;;;;22.21;11.35;100103.75;5032428;28;20040;-52
2023/03/20 07:49:05;;;;;;;12.25;6.22;;;;;;;23.77;10.59;100122.16;5022720;28;20064;-54
2023/03/20 07:51:31;;;;;;;17.00;5.78;;;;;;;24.81;9.61;100127.50;5025833;28;20033;-53
2023/03/20 07:53:56;;;;;;;11.02;4.40;;;;;;;25.98;9.00;100125.13;5012109;28;20417;-55
2023/03/20 07:56:22;;;;;;;11.65;4.30;;;;;;;26.55;8.04;100127.16;5011999;28;20460;-54
2023/03/20 07:58:47;;;;;;;11.10;4.53;;;;;;;26.80;7.87;100125.25;5012651;28;20095;-51
2023/03/20 08:01:14;;;;;;;7.75;4.60;;;;;;;26.44;8.28;100131.44;5012245;28;20042;-56
2023/03/20 08:03:39;;;;;;;11.55;5.00;;;;;;;25.28;8.97;100112.91;5012338;28;20440;-58
2023/03/20 08:06:08;;;;;;;14.05;5.22;;;;;;;23.47;9.74;100123.28;5012263;28;20033;-55
2023/03/20 08:08:34;;;;;;;13.60;5.13;;;;;;;21.43;11.19;100104.25;5012304;28;20453;-56
2023/03/20 08:11:00;;;;;;;13.35;5.55;;;;;;;19.72;12.25;100113.41;5012154;28;20045;-57
2023/03/20 08:13:26;;;;;;;11.90;6.22;;;;;;;18.01;13.84;100109.63;5019184;28;20057;-55
2023/03/20 08:15:51;;;;;;;15.35;6.32;;;;;;;16.48;15.23;100109.09;5019429;28;20401;-60
2023/03/20 08:18:18;;;;;;;23.17;6.55;;;;;;;15.44;16.13;100113.00;5012111;28;20156;-55
2023/03/20 08:20:44;;;;;;;17.70;6.13;;;;;;;14.47;16.73;100092.34;5012065;28;20108;-51
2023/03/20 08:23:10;;;;;;;13.23;6.18;;;;;;;13.97;17.65;100120.22;5015356;28;20425;-52
2023/03/20 08:25:36;;;;;;;18.65;7.03;;;;;;;13.60;18.35;100105.56;5030818;28;20025;-50
2023/03/20 08:28:02;;;;;;;13.98;6.30;;;;;;;13.43;18.19;100119.63;5032496;28;20083;-55
2023/03/20 08:30:28;;;;;;;10.63;5.53;;;;;;;13.22;18.14;100112.44;5034541;28;20029;-57
2023/03/20 08:32:54;;;;;;;7.50;4.80;;;;;;;12.95;17.94;100104.94;5034887;28;20029;-55
2023/03/20 08:35:20;;;;;;;8.88;4.93;;;;;;;12.74;17.98;100101.25;5027687;28;20037;-56
2023/03/20 08:37:45;;;;;;;11.13;5.22;;;;;;;12.57;18.63;100101.88;5016470;28;20054;-56
2023/03/20 08:40:11;;;;;;;44.88;8.88;;;;;;;12.44;18.66;100102.06;5016064;28;20049;-53
2023/03/20 08:42:38;;;;;;;28.30;7.88;;;;;;;12.47;19.03;100094.56;5015489;28;20445;-56
2023/03/20 08:45:04;;;;;;;17.98;6.00;;;;;;;12.34;19.15;100083.19;5033391;28;20038;-50
2023/03/20 08:47:30;;;;;;;17.70;6.38;;;;;;;12.36;19.35;100100.00;5034750;28;20421;-52
2023/03/20 08:49:56;;;;;;;7.82;5.30;;;;;;;12.29;19.53;100090.75;5033853;28;20029;-56
2023/03/20 08:52:21;;;;;;;9.40;6.20;;;;;;;12.12;19.61;100071.56;5025521;28;20021;-51
2023/03/20 08:54:46;;;;;;;12.82;6.13;;;;;;;12.06;19.70;100094.38;5014769;28;20087;-52
2023/03/20 08:57:12;;;;;;;16.38;6.65;;;;;;;12.01;19.59;100093.03;5015667;28;20072;-52
2023/03/20 08:59:37;;;;;;;16.70;6.80;;;;;;;11.98;19.36;100085.22;5025790;28;20067;-55
2023/03/20 09:02:03;;;;;;;11.70;6.53;;;;;;;12.06;20.16;100085.50;5035063;28;20436;-52
2023/03/20 09:04:29;;;;;;;15.07;6.93;;;;;;;12.19;19.94;100088.00;5035164;28;20053;-53
2023/03/20 09:06:55;;;;;;;21.35;7.00;;;;;;;12.28;19.55;100073.81;5035408;28;20418;-55
2023/03/20 09:09:25;;;;;;;20.00;6.60;;;;;;;12.45;19.39;100084.97;5035394;28;20022;-56
2023/03/20 09:11:51;;;;;;;11.80;6.20;;;;;;;12.45;19.01;100083.13;5031331;28;20101;-54
2023/03/20 09:14:16;;;;;;;8.98;5.30;;;;;;;12.43;18.82;100085.06;5022920;28;20120;-54
2023/03/20 09:16:42;;;;;;;11.52;5.20;;;;;;;12.40;17.84;100079.97;5034380;28;20068;-54
2023/03/20 09:19:07;;;;;;;11.60;5.35;;;;;;;12.34;18.10;100080.50;5034147;28;20850;-51
2023/03/20 09:21:33;;;;;;;13.05;5.25;;;;;;;12.19;18.67;100075.41;5030180;28;20108;-60
2023/03/20 09:23:58;;;;;;;10.02;5.13;;;;;;;12.05;18.45;100075.72;5014957;28;20060;-56
2023/03/20 09:26:24;;;;;;;30.38;7.25;;;;;;;11.95;19.02;100075.59;5015554;28;20029;-58
2023/03/20 09:28:49;;;;;;;14.20;5.85;;;;;;;11.85;19.14;100072.84;5034453;28;20466;-59
2023/03/20 09:31:15;;;;;;;13.00;5.78;;;;;;;11.62;19.51;100074.69;5033737;28;20409;-52
2023/03/20 09:33:40;;;;;;;16.45;6.63;;;;;;;11.47;20.07;100069.63;5033510;28;20409;-60
2023/03/20 09:36:10;;;;;;;14.90;7.00;;;;;;;11.29;20.50;100071.91;5034947;28;20077;-57
2023/03/20 09:38:36;;;;;;;14.65;6.90;;;;;;;11.31;20.31;100063.78;5034467;28;20061;-58
2023/03/20 09:41:03;;;;;;;19.73;6.50;;;;;;;11.29;20.21;100058.53;5033412;28;20049;-54
2023/03/20 09:43:47;;;;;;;12.73;6.88;;;;;;;11.31;20.60;100059.25;5034314;28;20099;-60
2023/03/20 09:46:31;;;;;;;13.55;6.72;;;;;;;11.46;20.56;100053.63;5028933;28;20034;-61
2023/03/20 09:49:24;;;;;;;12.63;6.43;;;;;;;11.24;20.52;100044.63;5013798;28;20034;-58
2023/03/20 09:51:59;;;;;;;13.43;6.30;;;;;;;10.95;20.56;100045.13;5020366;28;20033;-58
2023/03/20 09:54:28;;;;;;;18.67;6.00;;;;;;;10.81;20.36;100048.03;5033693;28;20460;-55
2023/03/20 09:56:56;;;;;;;10.00;6.10;;;;;;;10.59;20.86;100041.66;5033933;28;20037;-59
2023/03/20 09:59:24;;;;;;;12.57;6.75;;;;;;;10.51;21.02;100036.94;5032965;28;20036;-58
2023/03/20 10:01:58;;;;;;;15.95;5.65;;;;;;;10.33;20.91;100001.66;5031793;28;20076;-60
2023/03/20 10:04:26;;;;;;;7.35;5.57;;;;;;;10.46;21.01;100033.72;5033060;28;20053;-57
2023/03/20 10:06:53;;;;;;;9.38;4.95;;;;;;;10.35;20.36;100026.50;5033747;28;20039;-58
2023/03/20 10:09:24;;;;;;;9.57;6.00;;;;;;;10.04;20.91;99969.97;5033722;28;20143;-56
2023/03/20 10:11:52;;;;;;;9.75;5.70;;;;;;;10.27;20.74;100020.88;5034364;28;20036;-59
2023/03/20 10:14:30;;;;;;;8.77;5.90;;;;;;;10.34;21.10;100024.78;5033168;28;20411;-58
2023/03/20 10:17:14;;;;;;;13.38;6.30;;;;;;;10.45;20.85;100026.66;5033562;28;20478;-55
2023/03/20 10:19:50;;;;;;;14.60;6.68;;;;;;;10.41;21.26;100014.50;5033321;28;20029;-61
2023/03/20 10:22:28;;;;;;;11.48;6.50;;;;;;;10.42;21.64;100018.88;5013860;28;20046;-55
2023/03/20 10:25:28;;;;;;;12.68;6.63;;;;;;;10.53;21.39;100013.56;5013296;28;20461;-56
2023/03/20 10:28:03;;;;;;;11.75;6.80;;;;;;;10.56;20.83;100012.47;5013538;28;20172;-58
2023/03/20 10:30:52;;;;;;;15.20;6.37;;;;;;;10.65;20.23;99998.38;5014152;28;20040;-58
2023/03/20 10:34:17;;;;;;;11.38;6.18;;;;;;;10.69;20.86;100007.88;5013889;28;20318;-59
2023/03/20 10:37:04;;;;;;;13.68;6.93;;;;;;;10.73;20.82;100005.78;4998174;28;20379;-55
2023/03/20 10:39:56;;;;;;;11.70;6.88;;;;;;;10.70;20.54;99998.84;5014147;28;20054;-56
2023/03/20 10:42:32;;;;;;;12.20;6.07;;;;;;;10.73;20.43;99997.75;5015148;28;20449;-59
2023/03/20 10:45:05;;;;;;;14.95;5.97;;;;;;;10.51;20.16;99961.97;5031924;28;20041;-54
2023/03/20 10:47:35;;;;;;;10.60;6.57;;;;;;;10.70;20.25;99988.16;5031789;28;20555;-56
2023/03/20 10:50:06;;;;;;;12.68;6.70;;;;;;;10.65;20.52;99984.97;5030939;28;20459;-58
2023/03/20 10:52:36;;;;;;;20.02;7.35;;;;;;;10.70;20.83;99987.28;5013483;28;20045;-60
2023/03/20 10:55:07;;;;;;;12.60;6.45;;;;;;;10.80;21.05;99979.38;5013264;28;20376;-56
2023/03/20 10:57:40;;;;;;;10.32;6.20;;;;;;;10.76;20.91;99987.66;5013200;28;20460;-59
2023/03/20 11:00:09;;;;;;;11.63;6.95;;;;;;;10.66;21.15;99967.94;5011553;28;20264;-62
2023/03/20 11:02:36;;;;;;;13.00;6.15;;;;;;;10.66;21.30;99973.28;5013152;28;20095;-61
2023/03/20 11:05:20;;;;;;;15.23;6.70;;;;;;;10.61;21.35;99946.03;5013279;28;20112;-59
2023/03/20 11:07:48;;;;;;;15.70;7.10;;;;;;;10.53;21.90;99943.09;5013254;28;20037;-65
2023/03/20 11:10:15;;;;;;;16.48;6.75;;;;;;;10.66;21.86;99975.09;5013065;28;20452;-59
2023/03/20 11:12:46;;;;;;;12.38;7.15;;;;;;;10.47;22.65;99939.94;5018987;28;20025;-57
2023/03/20 11:15:33;;;;;;;12.68;6.72;;;;;;;10.75;22.47;99969.88;5031298;28;20459;-60
2023/03/20 11:18:03;;;;;;;12.13;7.15;;;;;;;10.62;23.95;99966.47;5032484;28;20142;-61
2023/03/20 11:20:37;;;;;;;12.77;6.57;;;;;;;10.58;24.05;99965.88;5031443;28;20124;-59
2023/03/20 11:23:04;;;;;;;15.35;6.82;;;;;;;10.50;24.08;99962.94;5031751;28;20468;-57
2023/03/20 11:25:37;;;;;;;12.45;7.07;;;;;;;10.43;24.53;99953.66;5031539;28;20647;-61
2023/03/20 11:28:35;;;;;;;19.75;8.07;;;;;;;10.48;24.95;99960.38;5031200;28;20037;-57
2023/03/20 11:31:12;;;;;;;15.10;7.72;;;;;;;10.38;25.00;99956.69;5032443;28;20029;-58
2023/03/20 11:33:42;;;;;;;11.50;7.18;;;;;;;10.25;25.45;99950.56;5019376;28;20043;-57
2023/03/20 11:36:22;;;;;;;17.63;7.25;;;;;;;10.22;25.46;99950.81;5050391;28;20033;-57